sensor_id;sensor_type;location;lat;lon;timestamp;temperature;humidity
14008;DHT22;61651;45.508;12.232;2023-11-19T00:01:53;10.10;99.90
14008;DHT22;61651;45.508;12.232;2023-11-19T00:04:55;10.10;99.90
14008;DHT22;61651;45.508;12.232;2023-11-19T00:07:57;10.10;99.90
14008;DHT22;61651;45.508;12.232;2023-11-19T00:11:00;10.10;99.90
14008;DHT22;61651;45.508;12.232;2023-11-19T00:14:04;10.10;99.90
14008;DHT22;61651;45.508;12.232;2023-11-19T00:17:09;10.10;99.90
14008;DHT22;61651;45.508;12.232;2023-11-19T00:20:11;10.20;99.90
14008;DHT22;61651;45.508;12.232;2023-11-19T00:23:14;10.20;99.90
14008;DHT22;61651;45.508;12.232;2023-11-19T00:26:17;10.10;99.90
14008;DHT22;61651;45.508;12.232;2023-11-19T00:29:19;10.10;99.90
14008;DHT22;61651;45.508;12.232;2023-11-19T00:32:21;10.20;99.90
14008;DHT22;61651;45.508;12.232;2023-11-19T00:35:23;10.10;99.90
14008;DHT22;61651;45.508;12.232;2023-11-19T00:38:25;10.20;99.90
14008;DHT22;61651;45.508;12.232;2023-11-19T00:41:29;10.20;99.90
14008;DHT22;61651;45.508;12.232;2023-11-19T00:44:31;10.10;99.90
14008;DHT22;61651;45.508;12.232;2023-11-19T00:47:33;10.10;99.90
14008;DHT22;61651;45.508;12.232;2023-11-19T00:50:35;10.10;99.90
14008;DHT22;61651;45.508;12.232;2023-11-19T00:53:37;10.00;99.90
14008;DHT22;61651;45.508;12.232;2023-11-19T00:56:41;10.00;99.90
14008;DHT22;61651;45.508;12.232;2023-11-19T00:59:43;10.00;99.90
14008;DHT22;61651;45.508;12.232;2023-11-19T01:02:46;10.10;99.90
14008;DHT22;61651;45.508;12.232;2023-11-19T01:05:50;10.10;99.90
14008;DHT22;61651;45.508;12.232;2023-11-19T01:08:53;10.10;99.90
14008;DHT22;61651;45.508;12.232;2023-11-19T01:11:57;10.00;99.90
14008;DHT22;61651;45.508;12.232;2023-11-19T01:14:59;9.80;99.90
14008;DHT22;61651;45.508;12.232;2023-11-19T01:18:01;9.80;99.90
14008;DHT22;61651;45.508;12.232;2023-11-19T01:21:05;9.90;99.90
14008;DHT22;61651;45.508;12.232;2023-11-19T01:24:08;9.80;99.90
14008;DHT22;61651;45.508;12.232;2023-11-19T01:27:14;9.70;99.90
14008;DHT22;61651;45.508;12.232;2023-11-19T01:30:16;9.90;99.90
14008;DHT22;61651;45.508;12.232;2023-11-19T01:33:18;10.10;99.90
14008;DHT22;61651;45.508;12.232;2023-11-19T01:36:22;10.10;99.90
14008;DHT22;61651;45.508;12.232;2023-11-19T01:39:24;10.00;99.90
14008;DHT22;61651;45.508;12.232;2023-11-19T01:42:28;10.00;99.90
14008;DHT22;61651;45.508;12.232;2023-11-19T01:45:31;10.20;99.90
14008;DHT22;61651;45.508;12.232;2023-11-19T01:48:34;10.30;99.90
14008;DHT22;61651;45.508;12.232;2023-11-19T01:51:37;10.30;99.90
14008;DHT22;61651;45.508;12.232;2023-11-19T01:54:39;10.20;99.90
14008;DHT22;61651;45.508;12.232;2023-11-19T01:57:43;10.40;99.90
14008;DHT22;61651;45.508;12.232;2023-11-19T02:00:45;10.40;99.90
14008;DHT22;61651;45.508;12.232;2023-11-19T02:03:47;10.50;99.90
14008;DHT22;61651;45.508;12.232;2023-11-19T02:06:51;10.60;99.90
14008;DHT22;61651;45.508;12.232;2023-11-19T02:09:56;10.50;99.90
14008;DHT22;61651;45.508;12.232;2023-11-19T02:13:01;10.40;99.90
14008;DHT22;61651;45.508;12.232;2023-11-19T02:16:06;10.40;99.90
14008;DHT22;61651;45.508;12.232;2023-11-19T02:19:10;10.30;99.90
14008;DHT22;61651;45.508;12.232;2023-11-19T02:22:12;10.40;99.90
14008;DHT22;61651;45.508;12.232;2023-11-19T02:25:19;10.40;99.90
14008;DHT22;61651;45.508;12.232;2023-11-19T02:28:23;10.40;99.90
14008;DHT22;61651;45.508;12.232;2023-11-19T02:31:25;10.40;99.90
14008;DHT22;61651;45.508;12.232;2023-11-19T02:34:28;10.40;99.90
14008;DHT22;61651;45.508;12.232;2023-11-19T02:37:30;10.40;99.90
14008;DHT22;61651;45.508;12.232;2023-11-19T02:40:31;10.30;99.90
14008;DHT22;61651;45.508;12.232;2023-11-19T02:43:36;10.30;99.90
14008;DHT22;61651;45.508;12.232;2023-11-19T02:46:39;10.30;99.90
14008;DHT22;61651;45.508;12.232;2023-11-19T02:49:43;10.20;99.90
14008;DHT22;61651;45.508;12.232;2023-11-19T02:52:45;10.20;99.90
14008;DHT22;61651;45.508;12.232;2023-11-19T02:55:47;10.10;99.90
14008;DHT22;61651;45.508;12.232;2023-11-19T02:58:52;10.10;99.90
14008;DHT22;61651;45.508;12.232;2023-11-19T03:01:54;10.10;99.90
14008;DHT22;61651;45.508;12.232;2023-11-19T03:04:56;10.10;99.90
14008;DHT22;61651;45.508;12.232;2023-11-19T03:08:00;10.00;99.90
14008;DHT22;61651;45.508;12.232;2023-11-19T03:11:04;10.00;99.90
14008;DHT22;61651;45.508;12.232;2023-11-19T03:14:07;10.00;99.90
14008;DHT22;61651;45.508;12.232;2023-11-19T03:17:09;10.00;99.90
14008;DHT22;61651;45.508;12.232;2023-11-19T03:20:12;10.00;99.90
14008;DHT22;61651;45.508;12.232;2023-11-19T03:23:16;10.00;99.90
14008;DHT22;61651;45.508;12.232;2023-11-19T03:26:18;9.90;99.90
14008;DHT22;61651;45.508;12.232;2023-11-19T03:29:21;9.90;99.90
14008;DHT22;61651;45.508;12.232;2023-11-19T03:32:23;9.90;99.90
14008;DHT22;61651;45.508;12.232;2023-11-19T03:35:26;9.80;99.90
14008;DHT22;61651;45.508;12.232;2023-11-19T03:38:28;9.80;99.90
14008;DHT22;61651;45.508;12.232;2023-11-19T03:41:30;9.70;99.90
14008;DHT22;61651;45.508;12.232;2023-11-19T03:44:34;9.70;99.90
14008;DHT22;61651;45.508;12.232;2023-11-19T03:47:36;9.70;99.90
14008;DHT22;61651;45.508;12.232;2023-11-19T03:50:38;9.80;99.90
14008;DHT22;61651;45.508;12.232;2023-11-19T03:53:40;9.70;99.90
14008;DHT22;61651;45.508;12.232;2023-11-19T03:56:42;9.80;99.90
14008;DHT22;61651;45.508;12.232;2023-11-19T03:59:45;9.80;99.90
14008;DHT22;61651;45.508;12.232;2023-11-19T04:02:47;9.50;99.90
14008;DHT22;61651;45.508;12.232;2023-11-19T04:05:49;9.50;99.90
14008;DHT22;61651;45.508;12.232;2023-11-19T04:08:51;9.40;99.90
14008;DHT22;61651;45.508;12.232;2023-11-19T04:11:53;9.40;99.90
14008;DHT22;61651;45.508;12.232;2023-11-19T04:14:57;9.50;99.90
14008;DHT22;61651;45.508;12.232;2023-11-19T04:17:59;9.40;99.90
14008;DHT22;61651;45.508;12.232;2023-11-19T04:21:01;9.20;99.90
14008;DHT22;61651;45.508;12.232;2023-11-19T04:24:03;9.20;99.90
14008;DHT22;61651;45.508;12.232;2023-11-19T04:27:05;9.30;99.90
14008;DHT22;61651;45.508;12.232;2023-11-19T04:30:10;9.30;99.90
14008;DHT22;61651;45.508;12.232;2023-11-19T04:33:12;9.20;99.90
14008;DHT22;61651;45.508;12.232;2023-11-19T04:36:18;9.20;99.90
14008;DHT22;61651;45.508;12.232;2023-11-19T04:39:21;9.20;99.90
14008;DHT22;61651;45.508;12.232;2023-11-19T04:42:23;9.10;99.90
14008;DHT22;61651;45.508;12.232;2023-11-19T04:45:27;9.10;99.90
14008;DHT22;61651;45.508;12.232;2023-11-19T04:48:29;9.20;99.90
14008;DHT22;61651;45.508;12.232;2023-11-19T04:51:31;9.30;99.90
14008;DHT22;61651;45.508;12.232;2023-11-19T04:54:41;9.30;99.90
14008;DHT22;61651;45.508;12.232;2023-11-19T04:57:44;9.30;99.90
14008;DHT22;61651;45.508;12.232;2023-11-19T05:00:47;9.30;99.90
14008;DHT22;61651;45.508;12.232;2023-11-19T05:03:49;9.20;99.90
14008;DHT22;61651;45.508;12.232;2023-11-19T05:06:51;8.90;99.90
14008;DHT22;61651;45.508;12.232;2023-11-19T05:09:54;8.70;99.90
14008;DHT22;61651;45.508;12.232;2023-11-19T05:12:56;8.60;99.90
14008;DHT22;61651;45.508;12.232;2023-11-19T05:15:59;8.50;99.90
14008;DHT22;61651;45.508;12.232;2023-11-19T05:19:01;8.70;99.90
14008;DHT22;61651;45.508;12.232;2023-11-19T05:22:03;8.80;99.90
14008;DHT22;61651;45.508;12.232;2023-11-19T05:25:07;8.90;99.90
14008;DHT22;61651;45.508;12.232;2023-11-19T05:28:09;9.00;99.90
14008;DHT22;61651;45.508;12.232;2023-11-19T05:31:13;9.00;99.90
14008;DHT22;61651;45.508;12.232;2023-11-19T05:34:15;9.00;99.90
14008;DHT22;61651;45.508;12.232;2023-11-19T05:37:17;9.00;99.90
14008;DHT22;61651;45.508;12.232;2023-11-19T05:40:19;8.90;99.90
14008;DHT22;61651;45.508;12.232;2023-11-19T05:43:21;8.90;99.90
14008;DHT22;61651;45.508;12.232;2023-11-19T05:46:25;8.90;99.90
14008;DHT22;61651;45.508;12.232;2023-11-19T05:49:27;8.80;99.90
14008;DHT22;61651;45.508;12.232;2023-11-19T05:52:29;8.90;99.90
14008;DHT22;61651;45.508;12.232;2023-11-19T05:55:34;8.90;99.90
14008;DHT22;61651;45.508;12.232;2023-11-19T05:58:36;8.90;99.90
14008;DHT22;61651;45.508;12.232;2023-11-19T06:01:41;8.80;99.90
14008;DHT22;61651;45.508;12.232;2023-11-19T06:04:43;8.80;99.90
14008;DHT22;61651;45.508;12.232;2023-11-19T06:07:48;8.80;99.90
14008;DHT22;61651;45.508;12.232;2023-11-19T06:10:51;8.60;99.90
14008;DHT22;61651;45.508;12.232;2023-11-19T06:13:54;8.70;99.90
14008;DHT22;61651;45.508;12.232;2023-11-19T06:16:58;8.40;99.90
14008;DHT22;61651;45.508;12.232;2023-11-19T06:20:00;8.40;99.90
14008;DHT22;61651;45.508;12.232;2023-11-19T06:23:04;8.30;99.90
14008;DHT22;61651;45.508;12.232;2023-11-19T06:26:07;8.10;99.90
14008;DHT22;61651;45.508;12.232;2023-11-19T06:29:09;8.10;99.90
14008;DHT22;61651;45.508;12.232;2023-11-19T06:32:12;8.30;99.90
14008;DHT22;61651;45.508;12.232;2023-11-19T06:35:14;8.40;99.90
14008;DHT22;61651;45.508;12.232;2023-11-19T06:38:16;8.50;99.90
14008;DHT22;61651;45.508;12.232;2023-11-19T06:41:18;8.50;99.90
14008;DHT22;61651;45.508;12.232;2023-11-19T06:44:20;8.60;99.90
14008;DHT22;61651;45.508;12.232;2023-11-19T06:47:25;8.60;99.90
14008;DHT22;61651;45.508;12.232;2023-11-19T06:50:27;8.70;99.90
14008;DHT22;61651;45.508;12.232;2023-11-19T06:53:29;8.70;99.90
14008;DHT22;61651;45.508;12.232;2023-11-19T06:56:31;8.70;99.90
14008;DHT22;61651;45.508;12.232;2023-11-19T06:59:33;8.70;99.90
14008;DHT22;61651;45.508;12.232;2023-11-19T07:02:37;8.70;99.90
14008;DHT22;61651;45.508;12.232;2023-11-19T07:05:39;8.70;99.90
14008;DHT22;61651;45.508;12.232;2023-11-19T07:08:42;8.70;99.90
14008;DHT22;61651;45.508;12.232;2023-11-19T07:11:45;8.80;99.90
14008;DHT22;61651;45.508;12.232;2023-11-19T07:14:47;8.80;99.90
14008;DHT22;61651;45.508;12.232;2023-11-19T07:17:50;8.90;99.90
14008;DHT22;61651;45.508;12.232;2023-11-19T07:20:54;8.90;99.90
14008;DHT22;61651;45.508;12.232;2023-11-19T07:23:57;8.90;99.90
14008;DHT22;61651;45.508;12.232;2023-11-19T07:26:59;9.00;99.90
14008;DHT22;61651;45.508;12.232;2023-11-19T07:30:01;9.00;99.90
14008;DHT22;61651;45.508;12.232;2023-11-19T07:33:04;9.00;99.90
14008;DHT22;61651;45.508;12.232;2023-11-19T07:36:07;9.10;99.90
14008;DHT22;61651;45.508;12.232;2023-11-19T07:39:09;9.20;99.90
14008;DHT22;61651;45.508;12.232;2023-11-19T07:42:11;9.30;99.90
14008;DHT22;61651;45.508;12.232;2023-11-19T07:45:13;9.30;99.90
14008;DHT22;61651;45.508;12.232;2023-11-19T07:48:17;9.30;99.90
14008;DHT22;61651;45.508;12.232;2023-11-19T07:51:23;9.30;99.90
14008;DHT22;61651;45.508;12.232;2023-11-19T07:54:25;9.40;99.90
14008;DHT22;61651;45.508;12.232;2023-11-19T07:57:27;9.40;99.90
14008;DHT22;61651;45.508;12.232;2023-11-19T08:00:31;9.50;99.90
14008;DHT22;61651;45.508;12.232;2023-11-19T08:03:34;9.50;99.90
14008;DHT22;61651;45.508;12.232;2023-11-19T08:06:37;9.60;99.90
14008;DHT22;61651;45.508;12.232;2023-11-19T08:09:39;9.80;99.90
14008;DHT22;61651;45.508;12.232;2023-11-19T08:12:41;9.80;99.90
14008;DHT22;61651;45.508;12.232;2023-11-19T08:15:43;9.80;99.90
14008;DHT22;61651;45.508;12.232;2023-11-19T08:18:46;10.00;99.90
14008;DHT22;61651;45.508;12.232;2023-11-19T08:21:48;10.10;99.90
14008;DHT22;61651;45.508;12.232;2023-11-19T08:24:50;10.30;99.90
14008;DHT22;61651;45.508;12.232;2023-11-19T08:27:53;10.40;99.90
14008;DHT22;61651;45.508;12.232;2023-11-19T08:30:54;10.40;99.90
14008;DHT22;61651;45.508;12.232;2023-11-19T08:33:58;10.50;99.90
14008;DHT22;61651;45.508;12.232;2023-11-19T08:37:00;10.50;99.90
14008;DHT22;61651;45.508;12.232;2023-11-19T08:40:02;10.50;99.90
14008;DHT22;61651;45.508;12.232;2023-11-19T08:43:05;10.60;99.90
14008;DHT22;61651;45.508;12.232;2023-11-19T08:46:09;10.70;99.90
14008;DHT22;61651;45.508;12.232;2023-11-19T08:49:13;10.80;99.90
14008;DHT22;61651;45.508;12.232;2023-11-19T08:52:15;11.00;99.90
14008;DHT22;61651;45.508;12.232;2023-11-19T08:55:18;11.00;99.90
14008;DHT22;61651;45.508;12.232;2023-11-19T08:58:20;11.10;99.90
14008;DHT22;61651;45.508;12.232;2023-11-19T09:01:22;11.20;99.90
14008;DHT22;61651;45.508;12.232;2023-11-19T09:04:26;11.20;99.90
14008;DHT22;61651;45.508;12.232;2023-11-19T09:07:28;11.30;99.90
14008;DHT22;61651;45.508;12.232;2023-11-19T09:10:31;11.40;99.90
14008;DHT22;61651;45.508;12.232;2023-11-19T09:13:33;11.40;99.90
14008;DHT22;61651;45.508;12.232;2023-11-19T09:16:35;11.50;99.90
14008;DHT22;61651;45.508;12.232;2023-11-19T09:19:38;11.60;99.90
14008;DHT22;61651;45.508;12.232;2023-11-19T09:22:41;11.80;99.90
14008;DHT22;61651;45.508;12.232;2023-11-19T09:25:43;11.70;99.90
14008;DHT22;61651;45.508;12.232;2023-11-19T09:28:45;11.80;99.90
14008;DHT22;61651;45.508;12.232;2023-11-19T09:31:47;11.90;99.90
14008;DHT22;61651;45.508;12.232;2023-11-19T09:34:51;12.00;99.90
14008;DHT22;61651;45.508;12.232;2023-11-19T09:37:53;12.10;99.80
14008;DHT22;61651;45.508;12.232;2023-11-19T09:40:55;12.20;99.60
14008;DHT22;61651;45.508;12.232;2023-11-19T09:43:58;12.20;99.90
14008;DHT22;61651;45.508;12.232;2023-11-19T09:47:00;12.40;99.40
14008;DHT22;61651;45.508;12.232;2023-11-19T09:50:04;12.40;99.00
14008;DHT22;61651;45.508;12.232;2023-11-19T09:53:06;12.50;99.70
14008;DHT22;61651;45.508;12.232;2023-11-19T09:56:09;12.60;98.40
14008;DHT22;61651;45.508;12.232;2023-11-19T09:59:12;12.60;99.80
14008;DHT22;61651;45.508;12.232;2023-11-19T10:02:14;12.80;98.00
14008;DHT22;61651;45.508;12.232;2023-11-19T10:05:20;12.90;97.90
14008;DHT22;61651;45.508;12.232;2023-11-19T10:08:23;13.00;97.90
14008;DHT22;61651;45.508;12.232;2023-11-19T10:11:26;13.00;97.50
14008;DHT22;61651;45.508;12.232;2023-11-19T10:14:28;13.10;97.80
14008;DHT22;61651;45.508;12.232;2023-11-19T10:17:33;13.30;96.60
14008;DHT22;61651;45.508;12.232;2023-11-19T10:20:37;13.40;96.80
14008;DHT22;61651;45.508;12.232;2023-11-19T10:23:49;13.50;98.60
14008;DHT22;61651;45.508;12.232;2023-11-19T10:26:52;13.60;96.90
14008;DHT22;61651;45.508;12.232;2023-11-19T10:29:54;13.70;98.70
14008;DHT22;61651;45.508;12.232;2023-11-19T10:33:06;13.70;96.60
14008;DHT22;61651;45.508;12.232;2023-11-19T10:36:11;13.60;94.80
14008;DHT22;61651;45.508;12.232;2023-11-19T10:39:13;13.50;95.40
14008;DHT22;61651;45.508;12.232;2023-11-19T10:42:16;13.60;95.00
14008;DHT22;61651;45.508;12.232;2023-11-19T10:45:22;13.60;95.20
14008;DHT22;61651;45.508;12.232;2023-11-19T10:48:25;13.70;94.30
14008;DHT22;61651;45.508;12.232;2023-11-19T10:51:29;13.80;95.00
14008;DHT22;61651;45.508;12.232;2023-11-19T10:54:32;13.90;94.00
14008;DHT22;61651;45.508;12.232;2023-11-19T10:57:37;14.00;95.00
14008;DHT22;61651;45.508;12.232;2023-11-19T11:00:44;14.30;94.30
14008;DHT22;61651;45.508;12.232;2023-11-19T11:03:47;14.10;94.40
14008;DHT22;61651;45.508;12.232;2023-11-19T11:06:54;14.20;94.70
14008;DHT22;61651;45.508;12.232;2023-11-19T11:09:59;14.50;95.10
14008;DHT22;61651;45.508;12.232;2023-11-19T11:13:03;14.80;95.50
14008;DHT22;61651;45.508;12.232;2023-11-19T11:16:05;15.10;94.90
14008;DHT22;61651;45.508;12.232;2023-11-19T11:19:09;14.90;94.30
14008;DHT22;61651;45.508;12.232;2023-11-19T11:22:14;15.20;93.30
14008;DHT22;61651;45.508;12.232;2023-11-19T11:25:33;15.30;97.10
14008;DHT22;61651;45.508;12.232;2023-11-19T11:28:43;15.20;93.30
14008;DHT22;61651;45.508;12.232;2023-11-19T11:31:55;15.20;93.80
14008;DHT22;61651;45.508;12.232;2023-11-19T11:35:14;15.40;94.30
14008;DHT22;61651;45.508;12.232;2023-11-19T11:38:22;15.40;93.80
14008;DHT22;61651;45.508;12.232;2023-11-19T11:41:25;15.60;94.20
14008;DHT22;61651;45.508;12.232;2023-11-19T11:45:00;15.90;93.90
14008;DHT22;61651;45.508;12.232;2023-11-19T11:48:11;16.10;93.50
14008;DHT22;61651;45.508;12.232;2023-11-19T11:51:13;16.30;93.80
14008;DHT22;61651;45.508;12.232;2023-11-19T11:54:28;16.10;92.70
14008;DHT22;61651;45.508;12.232;2023-11-19T11:57:36;16.00;93.30
14008;DHT22;61651;45.508;12.232;2023-11-19T12:00:40;15.90;92.70
14008;DHT22;61651;45.508;12.232;2023-11-19T12:03:42;15.70;92.40
14008;DHT22;61651;45.508;12.232;2023-11-19T12:07:03;15.60;92.70
14008;DHT22;61651;45.508;12.232;2023-11-19T12:10:08;15.90;92.90
14008;DHT22;61651;45.508;12.232;2023-11-19T12:13:12;15.90;92.20
14008;DHT22;61651;45.508;12.232;2023-11-19T12:16:14;15.40;92.90
14008;DHT22;61651;45.508;12.232;2023-11-19T12:19:17;15.30;92.20
14008;DHT22;61651;45.508;12.232;2023-11-19T12:22:20;15.30;92.80
14008;DHT22;61651;45.508;12.232;2023-11-19T12:25:23;15.40;93.20
14008;DHT22;61651;45.508;12.232;2023-11-19T12:28:25;15.30;92.60
14008;DHT22;61651;45.508;12.232;2023-11-19T12:31:28;15.40;93.20
14008;DHT22;61651;45.508;12.232;2023-11-19T12:34:30;15.60;92.60
14008;DHT22;61651;45.508;12.232;2023-11-19T12:37:32;15.90;93.70
14008;DHT22;61651;45.508;12.232;2023-11-19T12:40:37;16.00;93.30
14008;DHT22;61651;45.508;12.232;2023-11-19T12:43:39;15.90;92.30
14008;DHT22;61651;45.508;12.232;2023-11-19T12:46:41;15.70;92.70
14008;DHT22;61651;45.508;12.232;2023-11-19T12:49:43;15.70;92.00
14008;DHT22;61651;45.508;12.232;2023-11-19T12:52:55;15.60;92.00
14008;DHT22;61651;45.508;12.232;2023-11-19T12:56:07;15.70;92.40
14008;DHT22;61651;45.508;12.232;2023-11-19T12:59:10;15.80;92.50
14008;DHT22;61651;45.508;12.232;2023-11-19T13:02:13;15.80;93.00
14008;DHT22;61651;45.508;12.232;2023-11-19T13:05:24;16.20;93.40
14008;DHT22;61651;45.508;12.232;2023-11-19T13:08:26;16.10;92.00
14008;DHT22;61651;45.508;12.232;2023-11-19T13:11:34;16.10;91.90
14008;DHT22;61651;45.508;12.232;2023-11-19T13:14:38;16.30;91.70
14008;DHT22;61651;45.508;12.232;2023-11-19T13:17:40;16.30;91.40
14008;DHT22;61651;45.508;12.232;2023-11-19T13:20:42;16.60;91.70
14008;DHT22;61651;45.508;12.232;2023-11-19T13:23:44;16.80;91.60
14008;DHT22;61651;45.508;12.232;2023-11-19T13:26:48;17.20;92.10
14008;DHT22;61651;45.508;12.232;2023-11-19T13:29:50;17.50;91.70
14008;DHT22;61651;45.508;12.232;2023-11-19T13:32:52;17.90;91.40
14008;DHT22;61651;45.508;12.232;2023-11-19T13:35:55;18.10;90.00
14008;DHT22;61651;45.508;12.232;2023-11-19T13:38:57;18.50;90.90
14008;DHT22;61651;45.508;12.232;2023-11-19T13:42:02;18.80;90.60
14008;DHT22;61651;45.508;12.232;2023-11-19T13:45:04;19.10;90.40
14008;DHT22;61651;45.508;12.232;2023-11-19T13:48:11;19.00;90.10
14008;DHT22;61651;45.508;12.232;2023-11-19T13:51:13;19.10;89.20
14008;DHT22;61651;45.508;12.232;2023-11-19T13:54:15;19.00;88.10
14008;DHT22;61651;45.508;12.232;2023-11-19T13:57:19;19.20;89.20
14008;DHT22;61651;45.508;12.232;2023-11-19T14:00:21;19.30;88.50
14008;DHT22;61651;45.508;12.232;2023-11-19T14:03:24;18.90;88.00
14008;DHT22;61651;45.508;12.232;2023-11-19T14:06:26;18.90;88.10
14008;DHT22;61651;45.508;12.232;2023-11-19T14:09:28;19.10;89.60
14008;DHT22;61651;45.508;12.232;2023-11-19T14:12:32;19.50;89.70
14008;DHT22;61651;45.508;12.232;2023-11-19T14:15:34;19.50;89.10
14008;DHT22;61651;45.508;12.232;2023-11-19T14:18:36;19.70;90.10
14008;DHT22;61651;45.508;12.232;2023-11-19T14:21:39;19.90;90.00
14008;DHT22;61651;45.508;12.232;2023-11-19T14:24:41;20.00;90.10
14008;DHT22;61651;45.508;12.232;2023-11-19T14:27:45;20.20;90.10
14008;DHT22;61651;45.508;12.232;2023-11-19T14:30:47;20.20;90.10
14008;DHT22;61651;45.508;12.232;2023-11-19T14:33:54;20.10;90.10
14008;DHT22;61651;45.508;12.232;2023-11-19T14:36:56;20.10;90.50
14008;DHT22;61651;45.508;12.232;2023-11-19T14:39:58;20.00;90.90
14008;DHT22;61651;45.508;12.232;2023-11-19T14:43:02;19.90;90.70
14008;DHT22;61651;45.508;12.232;2023-11-19T14:46:04;19.80;90.70
14008;DHT22;61651;45.508;12.232;2023-11-19T14:49:07;19.70;91.30
14008;DHT22;61651;45.508;12.232;2023-11-19T14:52:09;19.60;91.50
14008;DHT22;61651;45.508;12.232;2023-11-19T14:55:11;19.40;91.70
14008;DHT22;61651;45.508;12.232;2023-11-19T14:58:15;19.30;92.00
14008;DHT22;61651;45.508;12.232;2023-11-19T15:01:17;19.20;92.30
14008;DHT22;61651;45.508;12.232;2023-11-19T15:04:19;19.10;92.20
14008;DHT22;61651;45.508;12.232;2023-11-19T15:07:21;19.00;92.30
14008;DHT22;61651;45.508;12.232;2023-11-19T15:10:24;18.90;92.20
14008;DHT22;61651;45.508;12.232;2023-11-19T15:13:27;18.70;92.50
14008;DHT22;61651;45.508;12.232;2023-11-19T15:16:29;18.60;93.20
14008;DHT22;61651;45.508;12.232;2023-11-19T15:19:34;18.40;93.50
14008;DHT22;61651;45.508;12.232;2023-11-19T15:22:36;18.10;93.20
14008;DHT22;61651;45.508;12.232;2023-11-19T15:25:38;17.90;93.70
14008;DHT22;61651;45.508;12.232;2023-11-19T15:28:42;17.60;94.20
14008;DHT22;61651;45.508;12.232;2023-11-19T15:31:44;17.40;94.10
14008;DHT22;61651;45.508;12.232;2023-11-19T15:34:46;17.20;95.00
14008;DHT22;61651;45.508;12.232;2023-11-19T15:37:49;17.00;95.00
14008;DHT22;61651;45.508;12.232;2023-11-19T15:40:51;16.80;95.00
14008;DHT22;61651;45.508;12.232;2023-11-19T15:43:54;16.60;95.60
14008;DHT22;61651;45.508;12.232;2023-11-19T15:46:56;16.50;95.50
14008;DHT22;61651;45.508;12.232;2023-11-19T15:49:59;16.30;95.30
14008;DHT22;61651;45.508;12.232;2023-11-19T15:53:01;16.20;95.90
14008;DHT22;61651;45.508;12.232;2023-11-19T15:56:04;16.00;95.70
14008;DHT22;61651;45.508;12.232;2023-11-19T15:59:07;15.90;95.80
14008;DHT22;61651;45.508;12.232;2023-11-19T16:02:09;15.70;96.00
14008;DHT22;61651;45.508;12.232;2023-11-19T16:05:12;15.60;96.40
14008;DHT22;61651;45.508;12.232;2023-11-19T16:08:15;15.50;96.90
14008;DHT22;61651;45.508;12.232;2023-11-19T16:11:17;15.40;96.70
14008;DHT22;61651;45.508;12.232;2023-11-19T16:14:20;15.30;96.70
14008;DHT22;61651;45.508;12.232;2023-11-19T16:17:22;15.20;97.20
14008;DHT22;61651;45.508;12.232;2023-11-19T16:20:24;15.10;97.50
14008;DHT22;61651;45.508;12.232;2023-11-19T16:23:26;15.00;97.40
14008;DHT22;61651;45.508;12.232;2023-11-19T16:26:28;14.90;97.40
14008;DHT22;61651;45.508;12.232;2023-11-19T16:29:34;14.80;97.30
14008;DHT22;61651;45.508;12.232;2023-11-19T16:32:48;14.70;97.70
14008;DHT22;61651;45.508;12.232;2023-11-19T16:35:50;14.70;97.80
14008;DHT22;61651;45.508;12.232;2023-11-19T16:38:52;14.60;97.80
14008;DHT22;61651;45.508;12.232;2023-11-19T16:41:54;14.50;97.80
14008;DHT22;61651;45.508;12.232;2023-11-19T16:44:57;14.40;97.90
14008;DHT22;61651;45.508;12.232;2023-11-19T16:48:00;14.40;98.10
14008;DHT22;61651;45.508;12.232;2023-11-19T16:51:09;14.30;98.30
14008;DHT22;61651;45.508;12.232;2023-11-19T16:54:14;14.20;98.40
14008;DHT22;61651;45.508;12.232;2023-11-19T16:57:16;14.20;98.40
14008;DHT22;61651;45.508;12.232;2023-11-19T17:00:20;14.10;98.60
14008;DHT22;61651;45.508;12.232;2023-11-19T17:03:22;14.00;98.90
14008;DHT22;61651;45.508;12.232;2023-11-19T17:06:24;13.90;99.00
14008;DHT22;61651;45.508;12.232;2023-11-19T17:09:26;13.90;99.70
14008;DHT22;61651;45.508;12.232;2023-11-19T17:12:29;13.80;99.30
14008;DHT22;61651;45.508;12.232;2023-11-19T17:15:33;13.80;99.30
14008;DHT22;61651;45.508;12.232;2023-11-19T17:18:35;13.70;99.60
14008;DHT22;61651;45.508;12.232;2023-11-19T17:21:47;13.70;99.90
14008;DHT22;61651;45.508;12.232;2023-11-19T17:24:49;13.60;99.90
14008;DHT22;61651;45.508;12.232;2023-11-19T17:27:51;13.50;99.90
14008;DHT22;61651;45.508;12.232;2023-11-19T17:30:55;13.50;99.90
14008;DHT22;61651;45.508;12.232;2023-11-19T17:33:57;13.50;99.90
14008;DHT22;61651;45.508;12.232;2023-11-19T17:36:59;13.40;99.90
14008;DHT22;61651;45.508;12.232;2023-11-19T17:40:01;13.40;99.90
14008;DHT22;61651;45.508;12.232;2023-11-19T17:43:03;13.30;99.90
14008;DHT22;61651;45.508;12.232;2023-11-19T17:46:06;13.20;99.90
14008;DHT22;61651;45.508;12.232;2023-11-19T17:49:08;13.20;99.90
14008;DHT22;61651;45.508;12.232;2023-11-19T17:52:11;13.10;99.90
14008;DHT22;61651;45.508;12.232;2023-11-19T17:55:13;13.10;99.90
14008;DHT22;61651;45.508;12.232;2023-11-19T17:58:15;13.00;99.90
14008;DHT22;61651;45.508;12.232;2023-11-19T18:01:20;13.00;99.90
14008;DHT22;61651;45.508;12.232;2023-11-19T18:04:23;12.90;99.90
14008;DHT22;61651;45.508;12.232;2023-11-19T18:07:26;12.90;99.90
14008;DHT22;61651;45.508;12.232;2023-11-19T18:10:29;12.90;99.90
14008;DHT22;61651;45.508;12.232;2023-11-19T18:13:31;12.80;99.90
14008;DHT22;61651;45.508;12.232;2023-11-19T18:16:35;12.70;99.90
14008;DHT22;61651;45.508;12.232;2023-11-19T18:19:37;12.60;99.90
14008;DHT22;61651;45.508;12.232;2023-11-19T18:22:39;12.60;99.90
14008;DHT22;61651;45.508;12.232;2023-11-19T18:25:41;12.60;99.90
14008;DHT22;61651;45.508;12.232;2023-11-19T18:28:45;12.50;99.90
14008;DHT22;61651;45.508;12.232;2023-11-19T18:31:48;12.50;99.90
14008;DHT22;61651;45.508;12.232;2023-11-19T18:34:50;12.50;99.90
14008;DHT22;61651;45.508;12.232;2023-11-19T18:37:53;12.40;99.90
14008;DHT22;61651;45.508;12.232;2023-11-19T18:40:55;12.40;99.90
14008;DHT22;61651;45.508;12.232;2023-11-19T18:43:57;12.40;99.90
14008;DHT22;61651;45.508;12.232;2023-11-19T18:47:00;12.30;99.90
14008;DHT22;61651;45.508;12.232;2023-11-19T18:50:03;12.30;99.90
14008;DHT22;61651;45.508;12.232;2023-11-19T18:53:05;12.30;99.90
14008;DHT22;61651;45.508;12.232;2023-11-19T18:56:08;12.10;99.90
14008;DHT22;61651;45.508;12.232;2023-11-19T18:59:10;12.10;99.90
14008;DHT22;61651;45.508;12.232;2023-11-19T19:02:14;12.10;99.90
14008;DHT22;61651;45.508;12.232;2023-11-19T19:05:16;12.00;99.90